Time;durP1;ratioP1;P1;durP2;ratioP2;P2;SDS_P1;SDS_P2;PMS_P1;PMS_P2;Temp;Humidity;BMP_temperature;BMP_pressure;BME280_temperature;BME280_humidity;BME280_pressure;Samples;Min_cycle;Max_cycle;Signal;HPM_P1;HPM_P2
2023/03/14 00:01:16;;;;;;;9.52;0.77;;;;;;;11.04;nan;99608.13;4998277;28;20057;-69
2023/03/14 00:03:43;;;;;;;12.20;1.35;;;;;;;11.02;nan;99610.75;4991592;28;20029;-69
2023/03/14 00:06:10;;;;;;;12.27;1.58;;;;;;;11.01;nan;99614.28;4997177;28;20026;-69
2023/03/14 00:08:36;;;;;;;7.65;0.60;;;;;;;10.99;nan;99617.88;4996537;28;20022;-70
2023/03/14 00:11:09;;;;;;;11.77;0.77;;;;;;;10.96;nan;99610.00;4987881;28;20027;-70
2023/03/14 00:13:34;;;;;;;14.25;0.88;;;;;;;10.95;nan;99608.25;4977545;28;20519;-70
2023/03/14 00:16:08;;;;;;;7.43;0.77;;;;;;;10.90;nan;99601.28;4977998;28;20058;-70
2023/03/14 00:18:35;;;;;;;11.43;0.90;;;;;;;10.88;nan;99599.59;4979741;28;20027;-70
2023/03/14 00:21:02;;;;;;;10.57;0.77;;;;;;;10.85;nan;99605.78;4977657;28;20030;-70
2023/03/14 00:23:28;;;;;;;8.80;0.70;;;;;;;10.83;nan;99604.94;4977546;28;20029;-70
2023/03/14 00:26:01;;;;;;;13.80;1.13;;;;;;;10.81;nan;99609.34;4977448;28;20498;-70
2023/03/14 00:28:28;;;;;;;12.43;1.43;;;;;;;10.84;nan;99609.31;4977252;28;20090;-70
2023/03/14 00:30:53;;;;;;;12.85;1.20;;;;;;;10.87;nan;99613.66;4988092;28;20051;-70
2023/03/14 00:33:19;;;;;;;7.87;0.90;;;;;;;10.88;nan;99605.72;4996773;28;20482;-70
2023/03/14 00:35:59;;;;;;;18.33;1.52;;;;;;;10.91;nan;99610.09;4997084;28;20027;-70
2023/03/14 00:38:25;;;;;;;10.85;0.85;;;;;;;10.96;nan;99610.00;5001833;28;20171;-70
2023/03/14 00:40:52;;;;;;;12.80;1.00;;;;;;;11.02;nan;99615.19;5007991;28;20037;-70
2023/03/14 00:43:21;;;;;;;7.97;0.80;;;;;;;11.08;nan;99601.91;5000398;28;20026;-70
2023/03/14 00:45:47;;;;;;;11.05;1.65;;;;;;;11.11;nan;99612.38;5000226;28;20030;-70
2023/03/14 00:48:13;;;;;;;9.35;1.10;;;;;;;11.11;nan;99601.84;5000517;28;20386;-70
2023/03/14 00:50:38;;;;;;;15.40;1.10;;;;;;;11.06;nan;99608.97;5000236;28;20038;-70
2023/03/14 00:53:04;;;;;;;11.48;1.08;;;;;;;11.05;nan;99608.06;5000312;28;20049;-70
2023/03/14 00:55:29;;;;;;;10.67;0.80;;;;;;;11.03;nan;99604.59;4999817;28;20062;-70
2023/03/14 00:57:55;;;;;;;11.80;1.00;;;;;;;11.00;nan;99609.06;5003838;28;20042;-70
2023/03/14 01:00:20;;;;;;;7.20;0.90;;;;;;;10.95;nan;99605.63;5001831;28;20034;-71
2023/03/14 01:02:45;;;;;;;9.43;0.80;;;;;;;10.88;nan;99605.72;4999117;28;20110;-70
2023/03/14 01:05:11;;;;;;;11.10;1.00;;;;;;;10.89;nan;99607.47;5004132;28;20037;-70
2023/03/14 01:07:37;;;;;;;9.43;0.80;;;;;;;10.91;nan;99610.09;4980663;28;20035;-70
2023/03/14 01:10:04;;;;;;;13.57;1.27;;;;;;;10.89;nan;99618.00;4980003;28;20030;-70
2023/03/14 01:12:30;;;;;;;11.00;0.93;;;;;;;10.88;nan;99621.53;4980437;28;20031;-70
2023/03/14 01:14:55;;;;;;;8.77;1.20;;;;;;;10.86;nan;99607.50;4988644;28;20029;-70
2023/03/14 01:17:21;;;;;;;10.80;1.13;;;;;;;10.81;nan;99604.09;4998744;28;20022;-70
2023/03/14 01:19:46;;;;;;;8.57;0.77;;;;;;;10.83;nan;99607.56;4999555;28;20026;-70
2023/03/14 01:22:12;;;;;;;10.20;1.03;;;;;;;10.82;nan;99615.47;4999620;28;20026;-70
2023/03/14 01:24:38;;;;;;;12.83;1.10;;;;;;;10.81;nan;99612.00;4999408;28;20034;-70
2023/03/14 01:27:03;;;;;;;12.20;1.13;;;;;;;10.81;nan;99606.72;4999674;28;20022;-70
2023/03/14 01:29:30;;;;;;;12.50;1.27;;;;;;;10.81;nan;99604.09;4999192;28;20032;-70
2023/03/14 01:31:55;;;;;;;7.95;0.80;;;;;;;10.83;nan;99604.03;4999323;28;20022;-70
2023/03/14 01:34:20;;;;;;;9.80;0.97;;;;;;;10.82;nan;99610.22;4999368;28;20109;-70
2023/03/14 01:36:46;;;;;;;13.00;0.97;;;;;;;10.81;nan;99604.09;4999317;28;20026;-70
2023/03/14 01:39:12;;;;;;;12.43;0.95;;;;;;;10.83;nan;99602.28;5006625;28;20048;-70
2023/03/14 01:41:38;;;;;;;10.60;1.13;;;;;;;10.84;nan;99604.03;5001298;28;20034;-70
2023/03/14 01:44:04;;;;;;;6.83;0.90;;;;;;;10.86;nan;99612.78;4999101;28;20022;-70
2023/03/14 01:46:50;;;;;;;11.25;0.98;;;;;;;10.90;nan;99613.59;4998857;28;20018;-70
2023/03/14 01:49:21;;;;;;;12.73;0.95;;;;;;;10.95;nan;99605.63;4999407;28;20022;-70
2023/03/14 01:51:58;;;;;;;16.67;1.30;;;;;;;11.00;nan;99614.34;4999243;28;20122;-70
2023/03/14 01:54:39;;;;;;;10.73;1.10;;;;;;;11.09;nan;99606.25;4998386;28;20399;-70
2023/03/14 01:57:11;;;;;;;16.35;1.10;;;;;;;11.22;nan;99603.44;5003215;28;20406;-70
2023/03/14 01:59:38;;;;;;;15.57;1.20;;;;;;;11.29;nan;99599.78;4999250;28;20058;-70
2023/03/14 02:02:09;;;;;;;14.60;1.05;;;;;;;11.38;nan;99599.59;4999050;28;20070;-70
2023/03/14 02:04:38;;;;;;;13.07;1.30;;;;;;;11.51;nan;99594.13;4995369;28;20022;-70
2023/03/14 02:07:17;;;;;;;16.60;1.83;;;;;;;11.54;nan;99600.19;4998891;28;20022;-70
2023/03/14 02:09:43;;;;;;;15.70;1.30;;;;;;;11.62;nan;99602.69;4998598;28;20026;-70
2023/03/14 02:12:13;;;;;;;13.43;1.33;;;;;;;11.70;nan;99597.28;4998501;28;20054;-70
2023/03/14 02:14:40;;;;;;;10.65;1.27;;;;;;;11.80;nan;99590.03;5001469;28;20489;-70
2023/03/14 02:17:07;;;;;;;13.47;1.43;;;;;;;11.84;nan;99581.16;4998784;28;20023;-70
2023/03/14 02:19:35;;;;;;;16.95;1.40;;;;;;;11.83;nan;99589.97;4998610;28;20026;-70
2023/03/14 02:22:13;;;;;;;14.90;1.38;;;;;;;11.86;nan;99568.81;4998402;28;20030;-70
2023/03/14 02:24:42;;;;;;;16.60;1.90;;;;;;;11.88;nan;99583.72;4998196;28;20023;-70
2023/03/14 02:27:18;;;;;;;11.45;1.17;;;;;;;11.87;nan;99568.78;4998576;28;20029;-70
2023/03/14 02:29:54;;;;;;;22.23;1.83;;;;;;;11.88;nan;99572.28;4998024;28;20038;-70
2023/03/14 02:32:22;;;;;;;16.23;1.52;;;;;;;11.93;nan;99573.06;4997136;28;20036;-70
2023/03/14 02:34:52;;;;;;;17.88;1.70;;;;;;;11.89;nan;99568.75;4998143;28;20041;-70
2023/03/14 02:37:21;;;;;;;17.05;1.27;;;;;;;11.92;nan;99566.91;4998448;28;20030;-70
2023/03/14 02:39:48;;;;;;;18.83;1.67;;;;;;;11.96;nan;99572.13;5004757;28;20546;-70
2023/03/14 02:42:14;;;;;;;18.70;1.70;;;;;;;11.95;nan;99575.66;5000183;28;20056;-70
2023/03/14 02:44:59;;;;;;;15.57;2.00;;;;;;;11.92;nan;99584.50;4996672;28;20490;-70
2023/03/14 02:47:30;;;;;;;14.52;1.73;;;;;;;11.91;nan;99590.69;4996775;28;20040;-70
2023/03/14 02:50:06;;;;;;;19.57;2.17;;;;;;;11.90;nan;99608.31;4998136;28;20038;-70
2023/03/14 02:52:32;;;;;;;14.20;1.50;;;;;;;12.02;nan;99586.09;4996598;28;20541;-70
2023/03/14 02:54:57;;;;;;;13.27;1.60;;;;;;;12.14;nan;99605.19;4997594;28;20398;-70
2023/03/14 02:57:23;;;;;;;16.55;1.52;;;;;;;12.09;nan;99601.78;5000955;28;20090;-70
2023/03/14 02:59:48;;;;;;;14.87;1.83;;;;;;;12.16;nan;99588.44;4986992;28;20035;-70
2023/03/14 03:02:13;;;;;;;18.33;1.87;;;;;;;12.26;nan;99591.75;4997343;28;20046;-70
2023/03/14 03:04:39;;;;;;;19.03;1.70;;;;;;;12.27;nan;99601.41;5001992;28;20059;-70
2023/03/14 03:07:04;;;;;;;16.50;1.80;;;;;;;12.34;nan;99596.88;5000928;28;20031;-70
2023/03/14 03:09:29;;;;;;;16.33;2.03;;;;;;;12.38;nan;99592.38;4997728;28;20301;-70
2023/03/14 03:11:55;;;;;;;16.17;1.50;;;;;;;12.37;nan;99603.84;4997463;28;20088;-70
2023/03/14 03:14:20;;;;;;;18.10;2.60;;;;;;;12.36;nan;99608.25;4997803;28;20034;-70
2023/03/14 03:16:46;;;;;;;26.27;2.43;;;;;;;12.36;nan;99595.06;4999442;28;20565;-70
2023/03/14 03:19:13;;;;;;;17.88;1.50;;;;;;;12.41;nan;99594.94;4997811;28;20372;-70
2023/03/14 03:21:38;;;;;;;20.07;1.70;;;;;;;12.42;nan;99597.56;4997139;28;20033;-71
2023/03/14 03:24:04;;;;;;;16.55;1.75;;;;;;;12.37;nan;99603.84;4997379;28;20026;-70
2023/03/14 03:26:29;;;;;;;21.93;2.37;;;;;;;12.38;nan;99609.09;4996231;28;20030;-70
2023/03/14 03:28:55;;;;;;;20.43;2.20;;;;;;;12.41;nan;99619.59;4996159;28;20057;-70
2023/03/14 03:31:20;;;;;;;16.77;1.83;;;;;;;12.42;nan;99621.31;4996871;28;20038;-70
2023/03/14 03:33:45;;;;;;;13.73;1.20;;;;;;;12.43;nan;99622.22;4997335;28;20068;-70
2023/03/14 03:36:11;;;;;;;16.33;2.43;;;;;;;12.46;nan;99635.34;4997323;28;20121;-70
2023/03/14 03:38:36;;;;;;;16.07;1.90;;;;;;;12.41;nan;99645.09;5000136;28;20029;-70
2023/03/14 03:41:04;;;;;;;14.80;1.40;;;;;;;12.35;nan;99640.84;5002937;28;20026;-70
2023/03/14 03:43:29;;;;;;;18.15;1.67;;;;;;;12.35;nan;99647.00;4996056;28;20394;-70
2023/03/14 03:45:55;;;;;;;12.43;1.37;;;;;;;12.35;nan;99636.44;4997169;28;20045;-70
2023/03/14 03:48:20;;;;;;;19.93;1.90;;;;;;;12.33;nan;99640.88;4996903;28;20031;-70
2023/03/14 03:50:46;;;;;;;17.30;2.00;;;;;;;12.29;nan;99633.03;4997301;28;20367;-70
2023/03/14 03:53:12;;;;;;;18.80;1.53;;;;;;;12.28;nan;99650.66;4997248;28;20038;-70
2023/03/14 03:55:37;;;;;;;11.40;1.23;;;;;;;12.27;nan;99659.50;4981254;28;20434;-70
2023/03/14 03:58:02;;;;;;;12.60;1.40;;;;;;;12.20;nan;99652.59;4993731;28;20160;-70
2023/03/14 04:00:28;;;;;;;11.77;1.13;;;;;;;12.11;nan;99671.25;4998946;28;20056;-70
2023/03/14 04:02:53;;;;;;;14.50;1.97;;;;;;;12.17;nan;99663.19;4995348;28;20040;-70
2023/03/14 04:05:19;;;;;;;11.38;1.23;;;;;;;12.08;nan;99679.25;5005627;28;20392;-70
2023/03/14 04:07:44;;;;;;;11.70;1.03;;;;;;;12.05;nan;99675.75;4997176;28;20480;-70
2023/03/14 04:10:10;;;;;;;8.17;0.80;;;;;;;12.08;nan;99666.03;4996815;28;20120;-71
2023/03/14 04:12:35;;;;;;;13.38;1.30;;;;;;;12.08;nan;99671.31;4999075;28;20022;-70
2023/03/14 04:15:01;;;;;;;10.70;1.17;;;;;;;12.03;nan;99676.69;5004148;28;20488;-70
2023/03/14 04:17:26;;;;;;;12.53;1.20;;;;;;;11.96;nan;99691.75;5001198;28;20057;-70
2023/03/14 04:19:53;;;;;;;14.30;1.77;;;;;;;11.90;nan;99711.19;5000865;28;20497;-70
2023/03/14 04:22:19;;;;;;;12.95;1.73;;;;;;;11.89;nan;99705.94;5000531;28;20029;-70
2023/03/14 04:24:44;;;;;;;16.13;1.07;;;;;;;11.80;nan;99701.69;4998931;28;20030;-70
2023/03/14 04:27:10;;;;;;;14.80;1.60;;;;;;;11.74;nan;99705.34;5000838;28;20030;-70
2023/03/14 04:29:35;;;;;;;15.13;2.17;;;;;;;11.63;nan;99715.19;4999072;28;20031;-70
2023/03/14 04:32:00;;;;;;;18.73;1.77;;;;;;;11.52;nan;99717.16;5000466;28;20486;-70
2023/03/14 04:34:26;;;;;;;18.33;2.17;;;;;;;11.53;nan;99713.63;5000534;28;20109;-70
2023/03/14 04:36:51;;;;;;;15.93;1.73;;;;;;;11.45;nan;99714.63;5000723;28;20034;-70
2023/03/14 04:39:17;;;;;;;16.13;1.73;;;;;;;11.42;nan;99704.09;5006936;28;20033;-70
2023/03/14 04:41:42;;;;;;;15.17;2.27;;;;;;;11.49;nan;99728.59;5002711;28;20033;-70
2023/03/14 04:44:07;;;;;;;20.63;2.07;;;;;;;11.45;nan;99717.25;5000148;28;20054;-70
2023/03/14 04:46:33;;;;;;;14.87;1.60;;;;;;;11.43;nan;99715.53;5000476;28;20030;-70
2023/03/14 04:48:58;;;;;;;15.97;1.77;;;;;;;11.45;nan;99722.53;5000299;28;20057;-70
2023/03/14 04:51:27;;;;;;;19.38;1.90;;;;;;;11.40;nan;99719.09;4992592;28;20113;-70
2023/03/14 04:53:52;;;;;;;18.33;2.17;;;;;;;11.44;nan;99733.94;4980665;28;20038;-70
2023/03/14 04:56:18;;;;;;;19.75;2.38;;;;;;;11.45;nan;99732.19;4979073;28;20431;-70
2023/03/14 04:58:44;;;;;;;20.00;2.03;;;;;;;11.49;nan;99742.69;5000720;28;20042;-70
2023/03/14 05:01:09;;;;;;;18.77;2.00;;;;;;;11.48;nan;99753.22;5002339;28;20411;-70
2023/03/14 05:03:38;;;;;;;18.90;1.97;;;;;;;11.55;nan;99756.66;4994375;28;20054;-70
2023/03/14 05:06:04;;;;;;;21.15;2.30;;;;;;;11.45;nan;99755.94;4999948;28;20026;-70
2023/03/14 05:08:29;;;;;;;23.33;2.22;;;;;;;11.47;nan;99751.50;4998623;28;20148;-70
2023/03/14 05:10:57;;;;;;;18.00;2.13;;;;;;;11.46;nan;99766.47;5000107;28;20030;-70
2023/03/14 05:13:22;;;;;;;19.17;1.80;;;;;;;11.38;nan;99763.06;4999570;28;20089;-70
2023/03/14 05:15:48;;;;;;;22.17;2.40;;;;;;;11.46;nan;99776.13;5003602;28;20501;-70
2023/03/14 05:18:14;;;;;;;26.60;2.17;;;;;;;11.52;nan;99775.16;4998469;28;20066;-70
2023/03/14 05:20:39;;;;;;;18.65;2.65;;;;;;;11.56;nan;99753.13;4999998;28;20029;-70
2023/03/14 05:23:04;;;;;;;19.17;2.43;;;;;;;11.51;nan;99760.25;4998792;28;20554;-70
2023/03/14 05:25:30;;;;;;;17.43;1.80;;;;;;;11.43;nan;99760.34;4999630;28;20101;-70
2023/03/14 05:27:55;;;;;;;22.20;2.00;;;;;;;11.45;nan;99761.19;4999809;28;20026;-70
2023/03/14 05:30:21;;;;;;;15.25;1.70;;;;;;;11.47;nan;99776.09;4997864;28;20153;-70
2023/03/14 05:32:47;;;;;;;16.70;1.60;;;;;;;11.53;nan;99771.63;4998124;28;20034;-70
2023/03/14 05:35:13;;;;;;;21.10;2.15;;;;;;;11.44;nan;99770.00;4999626;28;20030;-70
2023/03/14 05:37:39;;;;;;;14.20;1.47;;;;;;;11.40;nan;99777.06;4999453;28;20071;-70
2023/03/14 05:40:06;;;;;;;14.63;1.67;;;;;;;11.44;nan;99781.41;5004993;28;20540;-70
2023/03/14 05:42:32;;;;;;;13.98;1.33;;;;;;;11.46;nan;99787.56;5001350;28;20121;-70
2023/03/14 05:44:57;;;;;;;12.25;1.33;;;;;;;11.45;nan;99791.09;4999803;28;20022;-70
2023/03/14 05:47:22;;;;;;;12.03;1.30;;;;;;;11.48;nan;99795.41;4997826;28;20084;-70
2023/03/14 05:49:48;;;;;;;12.90;1.93;;;;;;;11.48;nan;99785.75;4979738;28;20031;-70
2023/03/14 05:52:14;;;;;;;12.07;1.43;;;;;;;11.50;nan;99788.34;4979847;28;20027;-70
2023/03/14 05:54:39;;;;;;;16.35;1.75;;;;;;;11.51;nan;99787.47;4978156;28;20031;-70
2023/03/14 05:57:05;;;;;;;13.73;1.43;;;;;;;11.51;nan;99797.16;4988100;28;20030;-70
2023/03/14 05:59:31;;;;;;;17.15;2.13;;;;;;;11.52;nan;99804.16;4999174;28;20018;-70
2023/03/14 06:01:56;;;;;;;13.80;1.43;;;;;;;11.46;nan;99798.09;5001007;28;20085;-70
2023/03/14 06:04:21;;;;;;;15.83;1.73;;;;;;;11.51;nan;99799.78;5000728;28;20114;-70
2023/03/14 06:06:47;;;;;;;16.88;1.75;;;;;;;11.52;nan;99796.25;5004056;28;20042;-70
2023/03/14 06:09:12;;;;;;;19.93;1.87;;;;;;;11.52;nan;99815.56;4998996;28;20466;-70
2023/03/14 06:11:38;;;;;;;17.67;1.70;;;;;;;11.55;nan;99817.31;4998877;28;20505;-70
2023/03/14 06:14:03;;;;;;;15.43;1.50;;;;;;;11.55;nan;99823.44;4998718;28;20446;-70
2023/03/14 06:16:28;;;;;;;16.10;1.83;;;;;;;11.63;nan;99826.84;5001724;28;20034;-70
2023/03/14 06:18:56;;;;;;;15.20;1.60;;;;;;;11.63;nan;99833.88;4999187;28;20034;-70
2023/03/14 06:21:21;;;;;;;12.63;1.80;;;;;;;11.60;nan;99840.06;4998789;28;20034;-70
2023/03/14 06:23:47;;;;;;;18.77;2.28;;;;;;;11.63;nan;99836.50;4998494;28;20030;-70
2023/03/14 06:26:12;;;;;;;16.57;1.53;;;;;;;11.65;nan;99855.81;4998354;28;20030;-70
2023/03/14 06:28:38;;;;;;;19.73;1.53;;;;;;;11.67;nan;99854.00;4998778;28;20038;-71
2023/03/14 06:31:04;;;;;;;18.38;2.22;;;;;;;11.63;nan;99873.44;4998033;28;20085;-70
2023/03/14 06:33:30;;;;;;;15.90;1.73;;;;;;;11.65;nan;99876.06;4996126;28;20026;-70
2023/03/14 06:35:56;;;;;;;19.58;1.73;;;;;;;11.60;nan;99868.19;4998314;28;20407;-70
2023/03/14 06:38:21;;;;;;;21.33;1.90;;;;;;;11.59;nan;99874.38;4999300;28;20038;-70
2023/03/14 06:40:47;;;;;;;20.88;2.55;;;;;;;11.60;nan;99876.13;5006132;28;20028;-70
2023/03/14 06:43:12;;;;;;;21.93;2.37;;;;;;;11.66;nan;99883.06;4985701;28;20122;-70
2023/03/14 06:45:37;;;;;;;24.50;2.17;;;;;;;11.67;nan;99883.03;4978924;28;20033;-70
2023/03/14 06:48:03;;;;;;;26.40;2.73;;;;;;;11.76;nan;99879.38;4998242;28;20034;-70
2023/03/14 06:50:28;;;;;;;26.33;3.08;;;;;;;11.83;nan;99888.97;4997753;28;20073;-70
2023/03/14 06:52:54;;;;;;;25.93;3.77;;;;;;;11.87;nan;99889.78;5013215;28;20038;-70
2023/03/14 06:55:20;;;;;;;29.27;3.13;;;;;;;11.81;nan;99896.00;4996766;28;20034;-70
2023/03/14 06:57:46;;;;;;;27.00;2.97;;;;;;;11.90;nan;99897.63;5002016;28;20383;-70
2023/03/14 07:00:12;;;;;;;30.20;3.07;;;;;;;11.92;nan;99894.09;5000003;28;20037;-70
2023/03/14 07:02:38;;;;;;;27.63;2.58;;;;;;;11.94;nan;99898.47;4998035;28;20843;-70
2023/03/14 07:05:04;;;;;;;25.17;2.85;;;;;;;12.01;nan;99906.31;4991278;28;20022;-70
2023/03/14 07:07:30;;;;;;;25.70;3.03;;;;;;;12.03;nan;99899.25;4997463;28;20041;-72
2023/03/14 07:09:55;;;;;;;18.67;2.47;;;;;;;12.11;nan;99912.31;4997771;28;20037;-71
2023/03/14 07:12:21;;;;;;;28.57;2.83;;;;;;;12.14;nan;99911.38;4998197;28;20026;-72
2023/03/14 07:14:46;;;;;;;22.53;3.07;;;;;;;12.19;nan;99926.25;5000443;28;20022;-69
2023/03/14 07:17:11;;;;;;;31.80;3.77;;;;;;;12.18;nan;99927.16;4998090;28;20084;-70
2023/03/14 07:19:37;;;;;;;25.77;2.77;;;;;;;12.20;nan;99933.28;4998055;28;20272;-72
2023/03/14 07:22:04;;;;;;;28.20;2.67;;;;;;;12.23;nan;99939.41;4997762;28;20434;-71
2023/03/14 07:24:29;;;;;;;25.70;2.77;;;;;;;12.27;nan;99941.97;4997297;28;20040;-71
2023/03/14 07:26:54;;;;;;;22.17;2.60;;;;;;;12.35;nan;99941.84;4996493;28;20487;-71
2023/03/14 07:29:20;;;;;;;24.40;3.17;;;;;;;12.48;nan;99947.78;4997773;28;20273;-71
2023/03/14 07:31:45;;;;;;;22.57;2.33;;;;;;;12.60;nan;99944.94;4995940;28;20169;-72
2023/03/14 07:34:11;;;;;;;25.10;3.33;;;;;;;12.67;nan;99950.97;4997106;28;20069;-71
2023/03/14 07:36:36;;;;;;;25.80;2.77;;;;;;;12.75;nan;99961.41;4997376;28;20030;-72
2023/03/14 07:39:02;;;;;;;28.63;3.17;;;;;;;12.80;nan;99953.41;4996209;28;20081;-71
2023/03/14 07:41:27;;;;;;;31.37;3.20;;;;;;;13.15;nan;99965.97;4989173;28;20037;-71
2023/03/14 07:43:52;;;;;;;24.37;2.93;;;;;;;13.61;nan;99963.28;4995908;28;20030;-71
2023/03/14 07:46:18;;;;;;;32.07;3.33;;;;;;;13.81;nan;99968.16;4993584;28;20038;-72
2023/03/14 07:48:43;;;;;;;29.73;3.53;;;;;;;13.92;nan;99978.50;4997356;28;20022;-71
2023/03/14 07:51:09;;;;;;;28.57;3.40;;;;;;;14.01;nan;99973.00;4996821;28;20037;-71
2023/03/14 07:53:34;;;;;;;28.70;3.93;;;;;;;14.19;nan;99973.47;4997077;28;20109;-71
2023/03/14 07:56:00;;;;;;;38.22;3.70;;;;;;;14.48;nan;99974.53;4997213;28;20026;-71
2023/03/14 07:58:25;;;;;;;31.57;4.20;;;;;;;14.89;nan;99980.59;5001353;28;20030;-71
2023/03/14 08:00:52;;;;;;;26.57;3.70;;;;;;;15.17;nan;99982.50;4997963;28;20119;-71
2023/03/14 08:03:17;;;;;;;33.83;3.83;;;;;;;16.22;nan;99975.00;4996134;28;20471;-72
2023/03/14 08:05:46;;;;;;;25.80;4.10;;;;;;;17.97;nan;99973.28;4997505;28;20137;-71
2023/03/14 08:08:11;;;;;;;33.17;4.82;;;;;;;18.84;nan;99959.06;4996505;28;20030;-71
2023/03/14 08:10:37;;;;;;;32.77;5.13;;;;;;;20.27;nan;99965.09;4996853;28;20030;-71
2023/03/14 08:13:02;;;;;;;21.53;3.40;;;;;;;21.52;nan;99963.97;4996013;28;20057;-72
2023/03/14 08:15:30;;;;;;;25.50;3.77;;;;;;;23.06;nan;99955.22;5001079;28;20053;-71
2023/03/14 08:17:55;;;;;;;20.75;3.30;;;;;;;23.96;nan;99956.81;4997026;28;20398;-70
2023/03/14 08:20:25;;;;;;;22.92;4.00;;;;;;;25.58;nan;99946.81;4995747;28;20034;-70
2023/03/14 08:22:50;;;;;;;21.03;4.00;;;;;;;26.40;nan;99952.53;4996949;28;20041;-70
2023/03/14 08:25:16;;;;;;;19.50;4.05;;;;;;;27.33;nan;99948.13;4996551;28;20022;-70
2023/03/14 08:27:42;;;;;;;20.37;3.77;;;;;;;27.88;nan;99964.47;4997154;28;20034;-70
2023/03/14 08:30:10;;;;;;;19.48;3.42;;;;;;;27.70;nan;99974.94;4996673;28;20525;-70
2023/03/14 08:32:36;;;;;;;21.70;3.58;;;;;;;25.65;nan;99975.03;4995617;28;20034;-70
2023/03/14 08:35:01;;;;;;;20.60;3.30;;;;;;;24.52;nan;99998.94;4996402;28;20095;-70
2023/03/14 08:37:27;;;;;;;19.03;3.63;;;;;;;23.04;nan;99992.03;4984411;28;20467;-70
2023/03/14 08:39:53;;;;;;;21.37;3.47;;;;;;;22.59;nan;99997.41;4997456;28;20034;-70
2023/03/14 08:42:18;;;;;;;19.13;3.30;;;;;;;21.44;nan;99997.47;4997433;28;20077;-70
2023/03/14 08:44:44;;;;;;;18.87;3.40;;;;;;;20.40;nan;100013.47;4996641;28;20022;-70
2023/03/14 08:47:09;;;;;;;23.70;3.47;;;;;;;19.51;nan;100018.44;4995609;28;20129;-70
2023/03/14 08:49:35;;;;;;;19.40;2.97;;;;;;;18.71;nan;100037.91;4996810;28;20119;-69
2023/03/14 08:52:02;;;;;;;22.93;3.47;;;;;;;18.09;nan;100030.59;4995363;28;20057;-71
2023/03/14 08:54:27;;;;;;;22.40;2.92;;;;;;;17.88;nan;100026.91;4996448;28;20113;-71
2023/03/14 08:56:53;;;;;;;23.80;2.90;;;;;;;17.86;nan;100029.63;4999314;28;20032;-71
2023/03/14 08:59:18;;;;;;;22.43;2.87;;;;;;;17.58;nan;100037.78;5000298;28;20076;-71
2023/03/14 09:01:43;;;;;;;23.70;3.33;;;;;;;17.20;nan;100032.94;5000553;28;20053;-71
2023/03/14 09:04:09;;;;;;;21.57;2.77;;;;;;;16.70;nan;100039.00;4994138;28;20064;-71
2023/03/14 09:06:35;;;;;;;26.27;3.50;;;;;;;16.39;nan;100042.69;5000371;28;20273;-71
2023/03/14 09:09:01;;;;;;;26.63;3.65;;;;;;;16.03;nan;100038.47;4999765;28;20040;-71
2023/03/14 09:11:26;;;;;;;31.07;3.40;;;;;;;15.96;nan;100040.44;5000124;28;20030;-71
2023/03/14 09:13:52;;;;;;;30.10;3.28;;;;;;;16.13;nan;100042.56;5000088;28;20061;-71
2023/03/14 09:16:17;;;;;;;28.80;4.10;;;;;;;16.24;nan;100044.88;5003407;28;20061;-71
2023/03/14 09:18:42;;;;;;;29.10;3.10;;;;;;;16.33;nan;100044.63;4998518;28;20034;-72
2023/03/14 09:21:08;;;;;;;18.90;2.60;;;;;;;16.35;nan;100053.41;4998754;28;20057;-71
2023/03/14 09:23:33;;;;;;;21.67;3.00;;;;;;;16.13;nan;100050.53;4999758;28;20034;-71
2023/03/14 09:26:00;;;;;;;24.67;3.10;;;;;;;15.88;nan;100055.69;4999427;28;20033;-71
2023/03/14 09:28:25;;;;;;;24.63;2.90;;;;;;;15.58;nan;100068.94;4999635;28;20037;-71
2023/03/14 09:30:51;;;;;;;25.27;3.43;;;;;;;15.24;nan;100077.81;4999654;28;20034;-71
2023/03/14 09:33:17;;;;;;;25.80;3.08;;;;;;;14.91;nan;100079.50;4994038;28;20462;-71
2023/03/14 09:35:42;;;;;;;16.63;2.50;;;;;;;14.54;nan;100085.66;4978597;28;20030;-71
2023/03/14 09:38:08;;;;;;;23.37;2.63;;;;;;;14.28;nan;100089.78;4980055;28;20294;-71
2023/03/14 09:40:35;;;;;;;28.43;3.23;;;;;;;14.02;nan;100083.28;5007913;28;20050;-71
2023/03/14 09:43:02;;;;;;;22.98;2.88;;;;;;;13.80;nan;100105.81;4999146;28;20034;-71
2023/03/14 09:45:32;;;;;;;22.63;2.65;;;;;;;13.66;nan;100124.59;4999491;28;20121;-71
2023/03/14 09:47:58;;;;;;;25.55;2.80;;;;;;;13.70;nan;100120.97;4999486;28;20096;-70
2023/03/14 09:50:25;;;;;;;15.50;1.73;;;;;;;13.70;nan;100116.56;4999379;28;20080;-71
2023/03/14 09:52:58;;;;;;;15.57;2.72;;;;;;;13.39;nan;100138.28;4999177;28;20109;-70
2023/03/14 09:55:24;;;;;;;11.50;1.13;;;;;;;12.93;nan;100155.78;4998839;28;20036;-70
2023/03/14 09:57:54;;;;;;;11.23;1.30;;;;;;;12.48;nan;100164.38;5002399;28;20030;-70
2023/03/14 10:00:23;;;;;;;13.57;0.93;;;;;;;12.12;nan;100146.34;5001681;28;20172;-71
2023/03/14 10:03:31;;;;;;;11.75;0.90;;;;;;;11.74;nan;100155.53;4997875;28;20033;-70
2023/03/14 10:05:56;;;;;;;10.52;1.30;;;;;;;11.85;nan;100148.38;4975701;28;20046;-70
2023/03/14 10:08:22;;;;;;;15.13;1.50;;;;;;;11.76;nan;100152.00;4998716;28;20427;-70
2023/03/14 10:10:47;;;;;;;14.43;1.60;;;;;;;11.66;nan;100152.09;4997444;28;20375;-70
2023/03/14 10:13:24;;;;;;;15.67;1.90;;;;;;;12.04;nan;100154.34;4999275;28;20411;-70
2023/03/14 10:16:01;;;;;;;16.17;1.80;;;;;;;13.40;nan;100161.19;5003644;28;20078;-70
2023/03/14 10:18:29;;;;;;;14.57;2.07;;;;;;;16.20;nan;100145.09;4997237;28;20030;-71
2023/03/14 10:21:22;;;;;;;10.43;1.25;;;;;;;18.37;nan;100122.78;4998614;28;20038;-71
2023/03/14 10:23:48;;;;;;;11.55;1.67;;;;;;;20.56;nan;100116.06;4998528;28;20036;-70
2023/03/14 10:26:16;;;;;;;9.43;1.67;;;;;;;21.47;nan;100110.72;4998552;28;20038;-70
2023/03/14 10:28:47;;;;;;;13.87;1.73;;;;;;;21.48;nan;100107.09;4990720;28;20061;-69
2023/03/14 10:31:14;;;;;;;14.27;1.67;;;;;;;21.44;nan;100108.19;4990824;28;20031;-70
2023/03/14 10:33:41;;;;;;;14.85;1.83;;;;;;;21.94;nan;100103.81;4998644;28;20030;-70
2023/03/14 10:36:20;;;;;;;10.57;1.98;;;;;;;22.60;nan;100095.75;4998268;28;20033;-70
2023/03/14 10:38:46;;;;;;;11.65;1.75;;;;;;;22.74;nan;100102.13;5001326;28;20099;-70
2023/03/14 10:41:26;;;;;;;12.30;1.90;;;;;;;22.89;nan;100086.94;5003159;28;20030;-70
2023/03/14 10:44:00;;;;;;;12.38;2.25;;;;;;;23.28;nan;100092.78;4998088;28;20026;-70
2023/03/14 10:46:29;;;;;;;10.95;2.15;;;;;;;24.00;nan;100083.88;4998365;28;20452;-70
2023/03/14 10:48:55;;;;;;;10.32;1.92;;;;;;;24.60;nan;100077.34;4998283;28;20546;-70
2023/03/14 10:51:26;;;;;;;13.00;2.90;;;;;;;25.76;nan;100057.88;4993600;28;20022;-70
2023/03/14 10:54:19;;;;;;;8.82;2.00;;;;;;;25.62;nan;100055.28;4992665;28;20545;-70
2023/03/14 10:56:44;;;;;;;8.88;1.83;;;;;;;25.34;nan;100062.56;4999899;28;20026;-70
2023/03/14 10:59:15;;;;;;;11.27;1.90;;;;;;;25.33;nan;100064.44;4999676;28;20033;-70
2023/03/14 11:01:51;;;;;;;10.85;2.25;;;;;;;24.87;nan;100054.97;4998414;28;20050;-70
2023/03/14 11:04:35;;;;;;;10.13;2.13;;;;;;;25.62;nan;100056.16;4992071;28;20395;-70
2023/03/14 11:07:12;;;;;;;10.02;1.92;;;;;;;25.67;nan;100079.22;4997956;28;20525;-70
2023/03/14 11:09:52;;;;;;;10.90;1.60;;;;;;;24.50;nan;100106.69;4997729;28;20022;-70
2023/03/14 11:12:30;;;;;;;4.90;0.73;;;;;;;22.21;nan;100115.78;4997562;28;20081;-70
2023/03/14 11:15:05;;;;;;;5.57;0.90;;;;;;;20.67;nan;100126.25;5001725;28;20505;-70
2023/03/14 11:17:39;;;;;;;6.90;0.80;;;;;;;19.57;nan;100133.94;4997723;28;20022;-69
2023/03/14 11:20:13;;;;;;;4.88;0.90;;;;;;;19.35;nan;100132.19;4997389;28;20022;-71
2023/03/14 11:22:55;;;;;;;7.50;1.00;;;;;;;19.62;nan;100121.22;4996454;28;20022;-71
2023/03/14 11:25:49;;;;;;;11.30;1.55;;;;;;;20.83;nan;100115.69;4990652;28;20026;-70
2023/03/14 11:28:14;;;;;;;9.65;1.52;;;;;;;21.51;nan;100128.34;4977811;28;20407;-70
2023/03/14 11:31:14;;;;;;;7.67;1.30;;;;;;;21.18;nan;100129.16;4987010;28;20075;-70
2023/03/14 11:33:55;;;;;;;12.68;1.48;;;;;;;20.32;nan;100142.19;4986826;28;20086;-70
2023/03/14 11:36:45;;;;;;;9.50;1.17;;;;;;;19.22;nan;100166.53;4996011;28;20030;-70
2023/03/14 11:39:14;;;;;;;6.55;1.08;;;;;;;18.06;nan;100179.88;5004480;28;20144;-70
2023/03/14 11:41:44;;;;;;;7.82;1.10;;;;;;;17.04;nan;100181.56;4999662;28;20066;-70
2023/03/14 11:44:23;;;;;;;6.28;0.68;;;;;;;15.92;nan;100187.50;4997462;28;20058;-70